sensor_id;sensor_type;location;lat;lon;timestamp;pressure;altitude;pressure_sealevel;temperature;humidity
77192;BME280;66172;48.526;8.078;2023-05-10T00:00:54;99044.25;;;14.67;88.15
77192;BME280;66172;48.526;8.078;2023-05-10T00:03:20;99050.09;;;14.65;87.77
77192;BME280;66172;48.526;8.078;2023-05-10T00:05:46;99059.38;;;14.57;87.60
77192;BME280;66172;48.526;8.078;2023-05-10T00:08:12;99056.69;;;14.61;87.40
77192;BME280;66172;48.526;8.078;2023-05-10T00:10:38;99061.03;;;14.65;87.95
77192;BME280;66172;48.526;8.078;2023-05-10T00:13:04;99061.41;;;14.64;87.71
77192;BME280;66172;48.526;8.078;2023-05-10T00:15:30;99065.28;;;14.59;87.43
77192;BME280;66172;48.526;8.078;2023-05-10T00:17:58;99061.09;;;14.69;86.82
77192;BME280;66172;48.526;8.078;2023-05-10T00:20:24;99068.13;;;14.70;87.40
77192;BME280;66172;48.526;8.078;2023-05-10T00:22:50;99068.94;;;14.70;87.36
77192;BME280;66172;48.526;8.078;2023-05-10T00:25:16;99076.75;;;14.72;86.77
77192;BME280;66172;48.526;8.078;2023-05-10T00:27:42;99073.66;;;14.73;87.71
77192;BME280;66172;48.526;8.078;2023-05-10T00:30:08;99069.00;;;14.77;87.68
77192;BME280;66172;48.526;8.078;2023-05-10T00:32:34;99067.41;;;14.76;86.93
77192;BME280;66172;48.526;8.078;2023-05-10T00:35:00;99073.63;;;14.70;85.97
77192;BME280;66172;48.526;8.078;2023-05-10T00:37:25;99074.38;;;14.67;85.78
77192;BME280;66172;48.526;8.078;2023-05-10T00:39:51;99072.81;;;14.69;86.14
77192;BME280;66172;48.526;8.078;2023-05-10T00:42:17;99072.78;;;14.66;86.84
77192;BME280;66172;48.526;8.078;2023-05-10T00:44:43;99067.72;;;14.68;86.61
77192;BME280;66172;48.526;8.078;2023-05-10T00:47:10;99072.81;;;14.69;86.58
77192;BME280;66172;48.526;8.078;2023-05-10T00:49:37;99074.44;;;14.74;86.36
77192;BME280;66172;48.526;8.078;2023-05-10T00:52:03;99072.47;;;14.74;86.24
77192;BME280;66172;48.526;8.078;2023-05-10T00:54:29;99072.84;;;14.73;85.60
77192;BME280;66172;48.526;8.078;2023-05-10T00:56:55;99066.53;;;14.65;85.92
77192;BME280;66172;48.526;8.078;2023-05-10T00:59:22;99065.66;;;14.58;84.58
77192;BME280;66172;48.526;8.078;2023-05-10T01:01:48;99064.53;;;14.62;84.87
77192;BME280;66172;48.526;8.078;2023-05-10T01:04:14;99062.19;;;14.64;84.80
77192;BME280;66172;48.526;8.078;2023-05-10T01:06:41;99055.84;;;14.57;83.72
77192;BME280;66172;48.526;8.078;2023-05-10T01:09:07;99059.81;;;14.59;83.96
77192;BME280;66172;48.526;8.078;2023-05-10T01:11:35;99059.47;;;14.64;84.87
77192;BME280;66172;48.526;8.078;2023-05-10T01:14:02;99058.59;;;14.57;85.96
77192;BME280;66172;48.526;8.078;2023-05-10T01:16:32;99055.78;;;14.49;86.19
77192;BME280;66172;48.526;8.078;2023-05-10T01:19:00;99048.31;;;14.46;86.19
77192;BME280;66172;48.526;8.078;2023-05-10T01:21:42;99051.44;;;14.45;85.79
77192;BME280;66172;48.526;8.078;2023-05-10T01:24:36;99054.13;;;14.41;86.12
77192;BME280;66172;48.526;8.078;2023-05-10T01:27:12;99055.03;;;14.23;85.42
77192;BME280;66172;48.526;8.078;2023-05-10T01:33:01;99061.47;;;14.34;86.12
77192;BME280;66172;48.526;8.078;2023-05-10T01:35:43;99062.94;;;14.28;85.02
77192;BME280;66172;48.526;8.078;2023-05-10T01:38:19;99060.19;;;13.98;83.83
77192;BME280;66172;48.526;8.078;2023-05-10T01:41:00;99059.53;;;14.08;85.57
77192;BME280;66172;48.526;8.078;2023-05-10T01:43:36;99055.78;;;14.20;85.68
77192;BME280;66172;48.526;8.078;2023-05-10T01:46:09;99061.06;;;14.06;84.49
77192;BME280;66172;48.526;8.078;2023-05-10T01:48:40;99060.63;;;14.00;86.17
77192;BME280;66172;48.526;8.078;2023-05-10T01:51:13;99073.84;;;13.98;84.34
77192;BME280;66172;48.526;8.078;2023-05-10T01:53:40;99057.34;;;13.91;85.59
77192;BME280;66172;48.526;8.078;2023-05-10T01:56:08;99064.47;;;13.95;81.71
77192;BME280;66172;48.526;8.078;2023-05-10T01:58:36;99067.44;;;13.87;86.43
77192;BME280;66172;48.526;8.078;2023-05-10T02:01:04;99065.19;;;13.92;86.65
77192;BME280;66172;48.526;8.078;2023-05-10T02:03:32;99067.56;;;13.94;87.64
77192;BME280;66172;48.526;8.078;2023-05-10T02:06:01;99067.97;;;13.96;87.78
77192;BME280;66172;48.526;8.078;2023-05-10T02:08:28;99064.34;;;13.88;88.33
77192;BME280;66172;48.526;8.078;2023-05-10T02:10:56;99072.56;;;13.88;87.77
77192;BME280;66172;48.526;8.078;2023-05-10T02:13:24;99072.56;;;13.88;87.52
77192;BME280;66172;48.526;8.078;2023-05-10T02:15:52;99087.91;;;13.96;88.18
77192;BME280;66172;48.526;8.078;2023-05-10T02:18:18;99089.41;;;13.94;87.85
77192;BME280;66172;48.526;8.078;2023-05-10T02:20:46;99096.56;;;14.02;88.42
77192;BME280;66172;48.526;8.078;2023-05-10T02:23:13;99101.25;;;14.01;88.00
77192;BME280;66172;48.526;8.078;2023-05-10T02:25:42;99101.25;;;14.01;87.50
77192;BME280;66172;48.526;8.078;2023-05-10T02:28:10;99100.41;;;13.97;87.25
77192;BME280;66172;48.526;8.078;2023-05-10T02:30:37;99102.03;;;14.02;88.63
77192;BME280;66172;48.526;8.078;2023-05-10T02:33:04;99097.63;;;13.94;88.67
77192;BME280;66172;48.526;8.078;2023-05-10T02:35:31;99095.63;;;13.91;88.99
77192;BME280;66172;48.526;8.078;2023-05-10T02:37:59;99094.09;;;13.93;89.05
77192;BME280;66172;48.526;8.078;2023-05-10T02:40:27;99090.22;;;13.94;88.89
77192;BME280;66172;48.526;8.078;2023-05-10T02:42:55;99085.28;;;14.04;87.94
77192;BME280;66172;48.526;8.078;2023-05-10T02:45:25;99086.44;;;14.02;88.03
77192;BME280;66172;48.526;8.078;2023-05-10T02:47:54;99099.16;;;13.91;88.17
77192;BME280;66172;48.526;8.078;2023-05-10T02:50:20;99096.94;;;13.74;88.21
77192;BME280;66172;48.526;8.078;2023-05-10T02:52:50;99087.28;;;13.80;88.67
77192;BME280;66172;48.526;8.078;2023-05-10T02:55:21;99096.31;;;13.84;88.87
77192;BME280;66172;48.526;8.078;2023-05-10T02:57:59;99097.94;;;13.89;89.25
77192;BME280;66172;48.526;8.078;2023-05-10T03:00:25;99092.53;;;13.92;89.62
77192;BME280;66172;48.526;8.078;2023-05-10T03:02:52;99093.53;;;13.81;88.59
77192;BME280;66172;48.526;8.078;2023-05-10T03:05:18;99088.75;;;13.74;88.22
77192;BME280;66172;48.526;8.078;2023-05-10T03:07:45;99096.56;;;13.76;88.66
77192;BME280;66172;48.526;8.078;2023-05-10T03:10:11;99098.59;;;13.79;88.77
77192;BME280;66172;48.526;8.078;2023-05-10T03:15:15;99104.97;;;13.90;88.88
77192;BME280;66172;48.526;8.078;2023-05-10T03:17:57;99101.00;;;13.84;88.05
77192;BME280;66172;48.526;8.078;2023-05-10T03:23:26;99094.47;;;13.92;88.62
77192;BME280;66172;48.526;8.078;2023-05-10T03:25:52;99101.16;;;13.94;88.42
77192;BME280;66172;48.526;8.078;2023-05-10T03:28:20;99107.81;;;13.97;88.24
77192;BME280;66172;48.526;8.078;2023-05-10T03:30:46;99108.56;;;13.94;88.88
77192;BME280;66172;48.526;8.078;2023-05-10T03:33:13;99116.00;;;13.97;88.11
77192;BME280;66172;48.526;8.078;2023-05-10T03:35:39;99113.34;;;14.00;87.89
77192;BME280;66172;48.526;8.078;2023-05-10T03:38:05;99110.53;;;13.97;88.06
77192;BME280;66172;48.526;8.078;2023-05-10T03:40:31;99117.44;;;13.87;88.31
77192;BME280;66172;48.526;8.078;2023-05-10T03:42:58;99118.53;;;13.83;89.10
77192;BME280;66172;48.526;8.078;2023-05-10T03:45:24;99121.38;;;13.64;89.11
77192;BME280;66172;48.526;8.078;2023-05-10T03:47:50;99120.75;;;13.51;87.52
77192;BME280;66172;48.526;8.078;2023-05-10T03:50:16;99122.59;;;13.66;86.66
77192;BME280;66172;48.526;8.078;2023-05-10T03:52:42;99127.53;;;13.83;85.28
77192;BME280;66172;48.526;8.078;2023-05-10T03:55:09;99121.09;;;13.72;85.16
77192;BME280;66172;48.526;8.078;2023-05-10T03:57:35;99113.19;;;13.64;85.07
77192;BME280;66172;48.526;8.078;2023-05-10T04:00:01;99123.78;;;13.69;85.94
77192;BME280;66172;48.526;8.078;2023-05-10T04:02:27;99121.38;;;13.64;85.62
77192;BME280;66172;48.526;8.078;2023-05-10T04:04:53;99127.94;;;13.59;84.80
77192;BME280;66172;48.526;8.078;2023-05-10T04:07:19;99122.19;;;13.64;83.36
77192;BME280;66172;48.526;8.078;2023-05-10T04:09:45;99125.00;;;13.71;83.95
77192;BME280;66172;48.526;8.078;2023-05-10T04:12:10;99121.84;;;13.69;83.50
77192;BME280;66172;48.526;8.078;2023-05-10T04:14:36;99124.78;;;13.57;82.12
77192;BME280;66172;48.526;8.078;2023-05-10T04:17:02;99131.34;;;13.52;83.78
77192;BME280;66172;48.526;8.078;2023-05-10T04:19:29;99124.00;;;13.57;84.58
77192;BME280;66172;48.526;8.078;2023-05-10T04:21:55;99132.53;;;13.55;85.51
77192;BME280;66172;48.526;8.078;2023-05-10T04:24:21;99129.88;;;13.59;84.32
77192;BME280;66172;48.526;8.078;2023-05-10T04:26:47;99136.19;;;13.63;83.17
77192;BME280;66172;48.526;8.078;2023-05-10T04:29:13;99135.78;;;13.61;82.91
77192;BME280;66172;48.526;8.078;2023-05-10T04:31:39;99129.56;;;13.64;83.45
77192;BME280;66172;48.526;8.078;2023-05-10T04:34:05;99133.31;;;13.78;83.02
77192;BME280;66172;48.526;8.078;2023-05-10T04:36:31;99138.06;;;13.81;84.39
77192;BME280;66172;48.526;8.078;2023-05-10T04:38:58;99136.41;;;13.77;84.26
77192;BME280;66172;48.526;8.078;2023-05-10T04:41:24;99135.72;;;13.83;84.72
77192;BME280;66172;48.526;8.078;2023-05-10T04:43:50;99132.63;;;13.85;84.51
77192;BME280;66172;48.526;8.078;2023-05-10T04:46:16;99137.16;;;13.74;83.77
77192;BME280;66172;48.526;8.078;2023-05-10T04:48:42;99131.75;;;13.77;84.10
77192;BME280;66172;48.526;8.078;2023-05-10T04:51:08;99136.13;;;13.82;85.01
77192;BME280;66172;48.526;8.078;2023-05-10T04:53:34;99136.34;;;13.73;84.53
77192;BME280;66172;48.526;8.078;2023-05-10T04:56:00;99135.31;;;13.81;85.38
77192;BME280;66172;48.526;8.078;2023-05-10T04:58:26;99142.78;;;13.84;85.75
77192;BME280;66172;48.526;8.078;2023-05-10T05:00:52;99145.75;;;13.76;86.21
77192;BME280;66172;48.526;8.078;2023-05-10T05:03:17;99141.53;;;13.78;87.09
77192;BME280;66172;48.526;8.078;2023-05-10T05:05:44;99140.00;;;13.81;87.88
77192;BME280;66172;48.526;8.078;2023-05-10T05:08:10;99138.53;;;13.87;88.10
77192;BME280;66172;48.526;8.078;2023-05-10T05:10:36;99145.28;;;13.93;86.20
77192;BME280;66172;48.526;8.078;2023-05-10T05:13:02;99150.03;;;13.99;85.97
77192;BME280;66172;48.526;8.078;2023-05-10T05:15:28;99157.88;;;14.01;85.29
77192;BME280;66172;48.526;8.078;2023-05-10T05:17:53;99166.81;;;13.98;86.54
77192;BME280;66172;48.526;8.078;2023-05-10T05:20:19;99171.06;;;13.95;86.42
77192;BME280;66172;48.526;8.078;2023-05-10T05:22:45;99186.16;;;13.86;85.22
77192;BME280;66172;48.526;8.078;2023-05-10T05:25:11;99178.44;;;13.69;86.17
77192;BME280;66172;48.526;8.078;2023-05-10T05:27:37;99177.97;;;13.63;86.55
77192;BME280;66172;48.526;8.078;2023-05-10T05:30:03;99180.56;;;13.56;86.57
77192;BME280;66172;48.526;8.078;2023-05-10T05:32:29;99184.06;;;13.79;84.73
77192;BME280;66172;48.526;8.078;2023-05-10T05:34:56;99204.03;;;13.57;86.11
77192;BME280;66172;48.526;8.078;2023-05-10T05:37:22;99196.06;;;13.48;86.51
77192;BME280;66172;48.526;8.078;2023-05-10T05:39:48;99204.03;;;13.57;87.09
77192;BME280;66172;48.526;8.078;2023-05-10T05:42:14;99200.00;;;13.51;86.27
77192;BME280;66172;48.526;8.078;2023-05-10T05:44:42;99201.34;;;13.61;86.18
77192;BME280;66172;48.526;8.078;2023-05-10T05:47:07;99203.41;;;13.67;86.55
77192;BME280;66172;48.526;8.078;2023-05-10T05:49:34;99201.22;;;13.76;86.48
77192;BME280;66172;48.526;8.078;2023-05-10T05:52:00;99204.06;;;13.61;85.67
77192;BME280;66172;48.526;8.078;2023-05-10T05:54:27;99202.00;;;13.77;85.40
77192;BME280;66172;48.526;8.078;2023-05-10T05:56:59;99198.34;;;13.92;84.64
77192;BME280;66172;48.526;8.078;2023-05-10T05:59:26;99200.91;;;13.81;82.95
77192;BME280;66172;48.526;8.078;2023-05-10T06:01:52;99210.50;;;13.94;85.02
77192;BME280;66172;48.526;8.078;2023-05-10T06:04:18;99211.75;;;14.00;84.88
77192;BME280;66172;48.526;8.078;2023-05-10T06:06:44;99211.69;;;13.97;83.94
77192;BME280;66172;48.526;8.078;2023-05-10T06:09:10;99217.22;;;14.00;83.50
77192;BME280;66172;48.526;8.078;2023-05-10T06:11:37;99210.09;;;13.92;83.56
77192;BME280;66172;48.526;8.078;2023-05-10T06:14:03;99213.44;;;14.09;83.87
77192;BME280;66172;48.526;8.078;2023-05-10T06:16:30;99220.22;;;14.18;83.64
77192;BME280;66172;48.526;8.078;2023-05-10T06:18:56;99216.06;;;14.24;83.46
77192;BME280;66172;48.526;8.078;2023-05-10T06:21:22;99223.56;;;14.31;83.09
77192;BME280;66172;48.526;8.078;2023-05-10T06:23:48;99223.81;;;14.45;83.32
77192;BME280;66172;48.526;8.078;2023-05-10T06:26:14;99230.16;;;14.53;82.12
77192;BME280;66172;48.526;8.078;2023-05-10T06:28:40;99240.03;;;14.61;82.02
77192;BME280;66172;48.526;8.078;2023-05-10T06:31:06;99239.38;;;14.71;79.62
77192;BME280;66172;48.526;8.078;2023-05-10T06:33:32;99233.31;;;14.55;77.63
77192;BME280;66172;48.526;8.078;2023-05-10T06:35:59;99230.22;;;14.56;77.59
77192;BME280;66172;48.526;8.078;2023-05-10T06:38:24;99223.81;;;14.75;78.47
77192;BME280;66172;48.526;8.078;2023-05-10T06:40:50;99230.81;;;14.72;77.11
77192;BME280;66172;48.526;8.078;2023-05-10T06:43:16;99232.09;;;14.82;77.26
77192;BME280;66172;48.526;8.078;2023-05-10T06:45:42;99247.75;;;15.11;75.04
77192;BME280;66172;48.526;8.078;2023-05-10T06:48:08;99251.31;;;15.15;73.85
77192;BME280;66172;48.526;8.078;2023-05-10T06:50:34;99251.97;;;15.38;74.36
77192;BME280;66172;48.526;8.078;2023-05-10T06:53:01;99250.88;;;15.13;73.52
77192;BME280;66172;48.526;8.078;2023-05-10T06:55:27;99257.34;;;15.31;72.91
77192;BME280;66172;48.526;8.078;2023-05-10T06:57:53;99261.78;;;15.39;70.77
77192;BME280;66172;48.526;8.078;2023-05-10T07:00:20;99254.31;;;15.36;70.28
77192;BME280;66172;48.526;8.078;2023-05-10T07:02:46;99259.69;;;15.29;71.88
77192;BME280;66172;48.526;8.078;2023-05-10T07:05:12;99255.13;;;15.07;72.03
77192;BME280;66172;48.526;8.078;2023-05-10T07:07:38;99246.59;;;15.12;70.43
77192;BME280;66172;48.526;8.078;2023-05-10T07:10:05;99251.97;;;15.05;72.63
77192;BME280;66172;48.526;8.078;2023-05-10T07:12:31;99246.53;;;15.09;73.15
77192;BME280;66172;48.526;8.078;2023-05-10T07:14:57;99250.56;;;15.18;73.29
77192;BME280;66172;48.526;8.078;2023-05-10T07:17:23;99256.19;;;14.99;70.16
77192;BME280;66172;48.526;8.078;2023-05-10T07:19:49;99252.50;;;15.18;71.09
77192;BME280;66172;48.526;8.078;2023-05-10T07:22:15;99258.47;;;15.23;72.17
77192;BME280;66172;48.526;8.078;2023-05-10T07:24:41;99260.69;;;15.47;72.47
77192;BME280;66172;48.526;8.078;2023-05-10T07:27:07;99257.44;;;15.38;71.43
77192;BME280;66172;48.526;8.078;2023-05-10T07:29:32;99261.59;;;15.59;73.20
77192;BME280;66172;48.526;8.078;2023-05-10T07:31:58;99255.84;;;15.71;73.57
77192;BME280;66172;48.526;8.078;2023-05-10T07:34:24;99252.75;;;15.39;71.49
77192;BME280;66172;48.526;8.078;2023-05-10T07:36:51;99252.53;;;15.51;71.85
77192;BME280;66172;48.526;8.078;2023-05-10T07:39:17;99265.84;;;15.53;71.90
77192;BME280;66172;48.526;8.078;2023-05-10T07:41:43;99275.94;;;15.82;73.07
77192;BME280;66172;48.526;8.078;2023-05-10T07:44:09;99263.56;;;15.98;71.54
77192;BME280;66172;48.526;8.078;2023-05-10T07:46:35;99277.06;;;16.18;71.98
77192;BME280;66172;48.526;8.078;2023-05-10T07:49:00;99271.34;;;16.40;70.11
77192;BME280;66172;48.526;8.078;2023-05-10T07:51:26;99266.19;;;16.32;70.04
77192;BME280;66172;48.526;8.078;2023-05-10T07:53:53;99266.31;;;16.49;69.99
77192;BME280;66172;48.526;8.078;2023-05-10T07:56:21;99271.13;;;16.63;71.28
77192;BME280;66172;48.526;8.078;2023-05-10T07:58:48;99270.00;;;16.71;70.43
77192;BME280;66172;48.526;8.078;2023-05-10T08:01:13;99266.56;;;16.30;69.39
77192;BME280;66172;48.526;8.078;2023-05-10T08:03:39;99269.38;;;16.41;72.53
77192;BME280;66172;48.526;8.078;2023-05-10T08:06:05;99270.41;;;16.70;70.08
77192;BME280;66172;48.526;8.078;2023-05-10T08:08:31;99271.78;;;17.11;68.81
77192;BME280;66172;48.526;8.078;2023-05-10T08:10:57;99267.28;;;17.61;67.93
77192;BME280;66172;48.526;8.078;2023-05-10T08:13:23;99268.47;;;17.71;67.74
77192;BME280;66172;48.526;8.078;2023-05-10T08:15:49;99273.97;;;17.74;67.51
77192;BME280;66172;48.526;8.078;2023-05-10T08:18:19;99269.13;;;17.39;68.44
77192;BME280;66172;48.526;8.078;2023-05-10T08:20:45;99267.53;;;17.35;69.25
77192;BME280;66172;48.526;8.078;2023-05-10T08:23:12;99262.41;;;17.23;70.32
77192;BME280;66172;48.526;8.078;2023-05-10T08:25:38;99264.28;;;17.01;69.12
77192;BME280;66172;48.526;8.078;2023-05-10T08:28:04;99263.09;;;16.95;70.15
77192;BME280;66172;48.526;8.078;2023-05-10T08:30:29;99258.84;;;17.12;70.61
77192;BME280;66172;48.526;8.078;2023-05-10T08:32:55;99258.03;;;17.11;70.77
77192;BME280;66172;48.526;8.078;2023-05-10T08:35:21;99264.69;;;17.10;70.58
77192;BME280;66172;48.526;8.078;2023-05-10T08:37:47;99268.63;;;17.06;70.00
77192;BME280;66172;48.526;8.078;2023-05-10T08:40:14;99267.78;;;16.94;72.23
77192;BME280;66172;48.526;8.078;2023-05-10T08:42:43;99270.22;;;17.14;68.80
77192;BME280;66172;48.526;8.078;2023-05-10T08:45:13;99273.91;;;16.67;72.11
77192;BME280;66172;48.526;8.078;2023-05-10T08:47:39;99275.16;;;16.25;73.39
77192;BME280;66172;48.526;8.078;2023-05-10T08:50:06;99278.72;;;16.33;73.71
77192;BME280;66172;48.526;8.078;2023-05-10T08:52:32;99297.88;;;16.26;73.44
77192;BME280;66172;48.526;8.078;2023-05-10T08:55:01;99321.25;;;15.39;76.61
77192;BME280;66172;48.526;8.078;2023-05-10T08:57:27;99327.03;;;14.74;76.31
77192;BME280;66172;48.526;8.078;2023-05-10T08:59:53;99321.25;;;14.30;78.05
77192;BME280;66172;48.526;8.078;2023-05-10T09:02:19;99334.69;;;14.16;78.03
77192;BME280;66172;48.526;8.078;2023-05-10T09:04:46;99339.69;;;14.11;77.19
77192;BME280;66172;48.526;8.078;2023-05-10T09:07:12;99345.88;;;14.30;76.60
77192;BME280;66172;48.526;8.078;2023-05-10T09:09:38;99338.94;;;14.36;75.47
77192;BME280;66172;48.526;8.078;2023-05-10T09:12:04;99333.97;;;14.42;74.80
77192;BME280;66172;48.526;8.078;2023-05-10T09:14:30;99330.91;;;14.47;75.60
77192;BME280;66172;48.526;8.078;2023-05-10T09:16:59;99333.75;;;14.54;75.90
77192;BME280;66172;48.526;8.078;2023-05-10T09:19:25;99341.00;;;14.66;77.84
77192;BME280;66172;48.526;8.078;2023-05-10T09:21:51;99351.72;;;14.78;76.49
77192;BME280;66172;48.526;8.078;2023-05-10T09:24:17;99346.84;;;14.90;74.27
77192;BME280;66172;48.526;8.078;2023-05-10T09:26:47;99350.31;;;14.87;73.32
77192;BME280;66172;48.526;8.078;2023-05-10T09:29:16;99344.09;;;14.90;73.01
77192;BME280;66172;48.526;8.078;2023-05-10T09:31:47;99339.97;;;14.51;72.13
77192;BME280;66172;48.526;8.078;2023-05-10T09:34:22;99343.91;;;14.54;72.49
77192;BME280;66172;48.526;8.078;2023-05-10T09:36:55;99350.47;;;14.98;72.29
77192;BME280;66172;48.526;8.078;2023-05-10T09:39:32;99344.34;;;14.82;71.59
77192;BME280;66172;48.526;8.078;2023-05-10T09:42:01;99347.81;;;14.79;72.32
77192;BME280;66172;48.526;8.078;2023-05-10T09:44:29;99346.44;;;14.92;70.82
77192;BME280;66172;48.526;8.078;2023-05-10T09:46:56;99346.69;;;15.10;71.21
77192;BME280;66172;48.526;8.078;2023-05-10T09:49:22;99350.97;;;15.07;70.63
77192;BME280;66172;48.526;8.078;2023-05-10T09:51:59;99351.56;;;14.93;71.18
77192;BME280;66172;48.526;8.078;2023-05-10T09:54:25;99345.50;;;14.55;73.14
77192;BME280;66172;48.526;8.078;2023-05-10T09:56:51;99347.69;;;14.00;75.28
77192;BME280;66172;48.526;8.078;2023-05-10T09:59:18;99342.41;;;14.11;75.75
77192;BME280;66172;48.526;8.078;2023-05-10T10:01:49;99346.56;;;14.05;75.63
77192;BME280;66172;48.526;8.078;2023-05-10T10:04:15;99350.53;;;14.30;74.75
77192;BME280;66172;48.526;8.078;2023-05-10T10:06:42;99349.47;;;14.34;74.80
77192;BME280;66172;48.526;8.078;2023-05-10T10:09:08;99353.41;;;14.14;76.44
77192;BME280;66172;48.526;8.078;2023-05-10T10:11:38;99353.53;;;14.21;77.00
77192;BME280;66172;48.526;8.078;2023-05-10T10:14:04;99359.72;;;14.18;77.60
77192;BME280;66172;48.526;8.078;2023-05-10T10:16:31;99370.22;;;14.16;77.27
77192;BME280;66172;48.526;8.078;2023-05-10T10:18:57;99370.91;;;14.10;78.56
77192;BME280;66172;48.526;8.078;2023-05-10T10:21:24;99370.16;;;14.13;76.52
77192;BME280;66172;48.526;8.078;2023-05-10T10:23:50;99362.81;;;14.17;76.75
77192;BME280;66172;48.526;8.078;2023-05-10T10:26:18;99362.06;;;14.39;76.04
77192;BME280;66172;48.526;8.078;2023-05-10T10:34:09;99369.63;;;14.04;78.71
77192;BME280;66172;48.526;8.078;2023-05-10T10:36:46;99358.63;;;14.00;79.71
77192;BME280;66172;48.526;8.078;2023-05-10T10:39:13;99362.19;;;13.62;80.09
77192;BME280;66172;48.526;8.078;2023-05-10T10:41:53;99367.16;;;13.57;82.05
77192;BME280;66172;48.526;8.078;2023-05-10T10:49:30;99365.28;;;13.61;83.59
77192;BME280;66172;48.526;8.078;2023-05-10T10:52:25;99372.88;;;13.90;82.05
77192;BME280;66172;48.526;8.078;2023-05-10T10:55:03;99362.09;;;13.59;80.36
77192;BME280;66172;48.526;8.078;2023-05-10T10:57:42;99370.38;;;14.04;81.20
77192;BME280;66172;48.526;8.078;2023-05-10T11:00:31;99363.22;;;13.96;81.39
77192;BME280;66172;48.526;8.078;2023-05-10T11:02:58;99366.97;;;13.88;80.13
77192;BME280;66172;48.526;8.078;2023-05-10T11:08:08;99356.63;;;14.20;79.88
77192;BME280;66172;48.526;8.078;2023-05-10T11:10:34;99358.84;;;14.56;76.96
77192;BME280;66172;48.526;8.078;2023-05-10T11:15:29;99359.75;;;16.57;70.34
77192;BME280;66172;48.526;8.078;2023-05-10T11:17:56;99347.44;;;16.91;68.15
77192;BME280;66172;48.526;8.078;2023-05-10T11:20:21;99344.84;;;18.52;63.82
77192;BME280;66172;48.526;8.078;2023-05-10T11:22:54;99346.31;;;19.23;61.42
77192;BME280;66172;48.526;8.078;2023-05-10T11:25:26;99345.53;;;19.12;59.12
77192;BME280;66172;48.526;8.078;2023-05-10T11:27:52;99346.03;;;18.58;61.59
77192;BME280;66172;48.526;8.078;2023-05-10T11:30:18;99352.28;;;18.30;63.57
77192;BME280;66172;48.526;8.078;2023-05-10T11:32:44;99353.56;;;16.70;67.39
77192;BME280;66172;48.526;8.078;2023-05-10T11:35:11;99350.72;;;17.18;66.87
77192;BME280;66172;48.526;8.078;2023-05-10T11:37:38;99344.00;;;18.16;66.04
77192;BME280;66172;48.526;8.078;2023-05-10T11:40:10;99339.91;;;19.55;61.13
77192;BME280;66172;48.526;8.078;2023-05-10T11:42:37;99349.88;;;21.10;56.13
77192;BME280;66172;48.526;8.078;2023-05-10T11:45:03;99340.94;;;22.20;51.74
77192;BME280;66172;48.526;8.078;2023-05-10T11:47:29;99340.47;;;22.25;50.16
77192;BME280;66172;48.526;8.078;2023-05-10T11:49:56;99335.19;;;21.81;49.95
77192;BME280;66172;48.526;8.078;2023-05-10T11:52:23;99332.81;;;20.26;49.18
77192;BME280;66172;48.526;8.078;2023-05-10T11:54:55;99334.53;;;19.09;51.39
77192;BME280;66172;48.526;8.078;2023-05-10T11:57:26;99335.31;;;19.09;55.96
77192;BME280;66172;48.526;8.078;2023-05-10T11:59:56;99334.19;;;18.29;53.95
77192;BME280;66172;48.526;8.078;2023-05-10T12:02:22;99332.25;;;18.40;56.67
77192;BME280;66172;48.526;8.078;2023-05-10T12:04:49;99342.50;;;18.54;58.22
77192;BME280;66172;48.526;8.078;2023-05-10T12:07:16;99333.03;;;18.69;56.65
77192;BME280;66172;48.526;8.078;2023-05-10T12:10:05;99325.47;;;19.08;57.65
77192;BME280;66172;48.526;8.078;2023-05-10T12:12:46;99323.16;;;18.92;55.98
77192;BME280;66172;48.526;8.078;2023-05-10T12:15:20;99327.91;;;18.74;53.99
77192;BME280;66172;48.526;8.078;2023-05-10T12:17:47;99323.22;;;18.54;55.14
77192;BME280;66172;48.526;8.078;2023-05-10T12:20:19;99325.16;;;18.78;55.31
77192;BME280;66172;48.526;8.078;2023-05-10T12:25:12;99328.53;;;20.15;55.75
77192;BME280;66172;48.526;8.078;2023-05-10T12:27:38;99326.50;;;20.74;51.49
77192;BME280;66172;48.526;8.078;2023-05-10T12:30:04;99322.53;;;21.80;49.83
77192;BME280;66172;48.526;8.078;2023-05-10T12:32:40;99323.78;;;22.06;46.41
77192;BME280;66172;48.526;8.078;2023-05-10T12:35:07;99322.59;;;22.03;43.89
77192;BME280;66172;48.526;8.078;2023-05-10T12:37:34;99320.72;;;21.97;44.61
77192;BME280;66172;48.526;8.078;2023-05-10T12:40:07;99326.75;;;21.27;44.92
77192;BME280;66172;48.526;8.078;2023-05-10T12:42:34;99330.13;;;21.05;46.82
77192;BME280;66172;48.526;8.078;2023-05-10T12:45:02;99331.94;;;20.40;47.15
77192;BME280;66172;48.526;8.078;2023-05-10T12:47:28;99332.69;;;20.44;47.79
77192;BME280;66172;48.526;8.078;2023-05-10T12:49:54;99327.94;;;19.82;47.83
77192;BME280;66172;48.526;8.078;2023-05-10T12:52:20;99328.97;;;19.26;47.38
77192;BME280;66172;48.526;8.078;2023-05-10T12:54:46;99333.91;;;19.74;47.46
77192;BME280;66172;48.526;8.078;2023-05-10T12:57:13;99332.28;;;19.83;50.03
77192;BME280;66172;48.526;8.078;2023-05-10T12:59:39;99326.38;;;19.78;51.15
77192;BME280;66172;48.526;8.078;2023-05-10T13:02:06;99328.88;;;20.20;49.72
77192;BME280;66172;48.526;8.078;2023-05-10T13:04:32;99343.59;;;20.03;49.27
77192;BME280;66172;48.526;8.078;2023-05-10T13:06:58;99331.66;;;19.48;48.23
77192;BME280;66172;48.526;8.078;2023-05-10T13:09:25;99335.53;;;19.64;48.97
77192;BME280;66172;48.526;8.078;2023-05-10T13:11:51;99334.44;;;19.44;47.33
77192;BME280;66172;48.526;8.078;2023-05-10T13:14:19;99336.16;;;19.93;47.87
77192;BME280;66172;48.526;8.078;2023-05-10T13:16:46;99336.03;;;19.45;47.74
77192;BME280;66172;48.526;8.078;2023-05-10T13:19:13;99327.78;;;19.27;48.18
77192;BME280;66172;48.526;8.078;2023-05-10T13:21:39;99319.03;;;19.50;46.82
77192;BME280;66172;48.526;8.078;2023-05-10T13:24:07;99320.19;;;19.60;47.29
77192;BME280;66172;48.526;8.078;2023-05-10T13:26:33;99322.84;;;19.74;46.43
77192;BME280;66172;48.526;8.078;2023-05-10T13:28:59;99323.41;;;20.13;44.09